sensor_id;sensor_type;location;lat;lon;timestamp;temperature;humidity
1277;DHT22;631;51.024;13.826;2022-12-07T00:00:27;3.80;99.90
1277;DHT22;631;51.024;13.826;2022-12-07T00:02:53;3.80;99.90
1277;DHT22;631;51.024;13.826;2022-12-07T00:05:19;3.80;99.90
1277;DHT22;631;51.024;13.826;2022-12-07T00:07:44;3.70;99.90
1277;DHT22;631;51.024;13.826;2022-12-07T00:10:10;3.70;99.90
1277;DHT22;631;51.024;13.826;2022-12-07T00:12:35;3.70;99.90
1277;DHT22;631;51.024;13.826;2022-12-07T00:15:01;3.80;99.90
1277;DHT22;631;51.024;13.826;2022-12-07T00:17:26;3.70;99.90
1277;DHT22;631;51.024;13.826;2022-12-07T00:19:52;3.70;99.90
1277;DHT22;631;51.024;13.826;2022-12-07T00:22:18;3.80;99.90
1277;DHT22;631;51.024;13.826;2022-12-07T00:24:43;3.70;99.90
1277;DHT22;631;51.024;13.826;2022-12-07T00:27:09;3.70;99.90
1277;DHT22;631;51.024;13.826;2022-12-07T00:29:34;3.70;99.90
1277;DHT22;631;51.024;13.826;2022-12-07T00:32:02;3.80;99.90
1277;DHT22;631;51.024;13.826;2022-12-07T00:34:28;3.80;99.90
1277;DHT22;631;51.024;13.826;2022-12-07T00:36:53;3.80;99.90
1277;DHT22;631;51.024;13.826;2022-12-07T00:39:19;3.70;99.90
1277;DHT22;631;51.024;13.826;2022-12-07T00:41:45;3.70;99.90
1277;DHT22;631;51.024;13.826;2022-12-07T00:44:11;3.80;99.90
1277;DHT22;631;51.024;13.826;2022-12-07T00:46:37;3.70;99.90
1277;DHT22;631;51.024;13.826;2022-12-07T00:49:03;3.80;99.90
1277;DHT22;631;51.024;13.826;2022-12-07T00:51:28;3.80;99.90
1277;DHT22;631;51.024;13.826;2022-12-07T00:53:54;3.80;99.90
1277;DHT22;631;51.024;13.826;2022-12-07T00:56:26;3.70;99.90
1277;DHT22;631;51.024;13.826;2022-12-07T00:58:57;3.80;99.90
1277;DHT22;631;51.024;13.826;2022-12-07T01:01:24;3.80;99.90
1277;DHT22;631;51.024;13.826;2022-12-07T01:03:50;3.80;99.90
1277;DHT22;631;51.024;13.826;2022-12-07T01:06:18;3.90;99.90
1277;DHT22;631;51.024;13.826;2022-12-07T01:08:44;3.90;99.90
1277;DHT22;631;51.024;13.826;2022-12-07T01:11:13;3.90;99.90
1277;DHT22;631;51.024;13.826;2022-12-07T01:13:39;3.90;99.90
1277;DHT22;631;51.024;13.826;2022-12-07T01:16:06;4.00;99.90
1277;DHT22;631;51.024;13.826;2022-12-07T01:18:34;4.00;99.90
1277;DHT22;631;51.024;13.826;2022-12-07T01:21:15;4.00;99.90
1277;DHT22;631;51.024;13.826;2022-12-07T01:23:42;4.00;99.90
1277;DHT22;631;51.024;13.826;2022-12-07T01:26:12;4.00;99.90
1277;DHT22;631;51.024;13.826;2022-12-07T01:28:38;4.00;99.90
1277;DHT22;631;51.024;13.826;2022-12-07T01:31:06;3.90;99.90
1277;DHT22;631;51.024;13.826;2022-12-07T01:33:34;3.90;99.90
1277;DHT22;631;51.024;13.826;2022-12-07T01:36:23;3.90;99.90
1277;DHT22;631;51.024;13.826;2022-12-07T01:38:51;3.90;99.90
1277;DHT22;631;51.024;13.826;2022-12-07T01:41:18;4.00;99.90
1277;DHT22;631;51.024;13.826;2022-12-07T01:46:52;4.00;99.90
1277;DHT22;631;51.024;13.826;2022-12-07T01:52:21;3.90;99.90
1277;DHT22;631;51.024;13.826;2022-12-07T01:54:51;4.00;99.90
1277;DHT22;631;51.024;13.826;2022-12-07T01:57:18;3.90;99.90
1277;DHT22;631;51.024;13.826;2022-12-07T01:59:49;3.90;99.90
1277;DHT22;631;51.024;13.826;2022-12-07T02:02:28;3.90;99.90
1277;DHT22;631;51.024;13.826;2022-12-07T02:04:57;3.90;99.90
1277;DHT22;631;51.024;13.826;2022-12-07T02:07:24;3.90;99.90
1277;DHT22;631;51.024;13.826;2022-12-07T02:09:51;3.90;99.90
1277;DHT22;631;51.024;13.826;2022-12-07T02:12:16;3.80;99.90
1277;DHT22;631;51.024;13.826;2022-12-07T02:14:42;3.80;99.90
1277;DHT22;631;51.024;13.826;2022-12-07T02:17:24;3.80;99.90
1277;DHT22;631;51.024;13.826;2022-12-07T02:20:21;3.80;99.90
1277;DHT22;631;51.024;13.826;2022-12-07T02:25:47;3.70;99.90
1277;DHT22;631;51.024;13.826;2022-12-07T02:28:33;3.70;99.90
1277;DHT22;631;51.024;13.826;2022-12-07T02:31:06;3.70;99.90
1277;DHT22;631;51.024;13.826;2022-12-07T02:33:44;3.60;99.90
1277;DHT22;631;51.024;13.826;2022-12-07T02:36:25;3.60;99.90
1277;DHT22;631;51.024;13.826;2022-12-07T02:39:06;3.60;99.90
1277;DHT22;631;51.024;13.826;2022-12-07T02:41:39;3.50;99.90
1277;DHT22;631;51.024;13.826;2022-12-07T02:44:26;3.50;99.90
1277;DHT22;631;51.024;13.826;2022-12-07T02:47:05;3.40;99.90
1277;DHT22;631;51.024;13.826;2022-12-07T02:49:33;3.40;99.90
1277;DHT22;631;51.024;13.826;2022-12-07T02:52:00;3.40;99.90
1277;DHT22;631;51.024;13.826;2022-12-07T02:54:26;3.30;99.90
1277;DHT22;631;51.024;13.826;2022-12-07T02:56:53;3.40;99.90
1277;DHT22;631;51.024;13.826;2022-12-07T03:07:30;3.30;99.90
1277;DHT22;631;51.024;13.826;2022-12-07T03:12:42;3.30;99.90
1277;DHT22;631;51.024;13.826;2022-12-07T03:15:15;3.30;99.90
1277;DHT22;631;51.024;13.826;2022-12-07T03:17:45;3.30;99.90
1277;DHT22;631;51.024;13.826;2022-12-07T03:20:14;3.30;99.90
1277;DHT22;631;51.024;13.826;2022-12-07T03:22:43;3.30;99.90
1277;DHT22;631;51.024;13.826;2022-12-07T03:25:11;3.20;99.90
1277;DHT22;631;51.024;13.826;2022-12-07T03:27:45;3.20;99.90
1277;DHT22;631;51.024;13.826;2022-12-07T03:30:20;3.30;99.90
1277;DHT22;631;51.024;13.826;2022-12-07T03:32:56;3.20;99.90
1277;DHT22;631;51.024;13.826;2022-12-07T03:35:27;3.20;99.90
1277;DHT22;631;51.024;13.826;2022-12-07T03:38:19;3.10;99.90
1277;DHT22;631;51.024;13.826;2022-12-07T03:43:25;3.20;99.90
1277;DHT22;631;51.024;13.826;2022-12-07T03:46:13;3.10;99.90
1277;DHT22;631;51.024;13.826;2022-12-07T03:51:28;3.00;99.90
1277;DHT22;631;51.024;13.826;2022-12-07T03:54:07;3.00;99.90
1277;DHT22;631;51.024;13.826;2022-12-07T03:56:36;3.00;99.90
1277;DHT22;631;51.024;13.826;2022-12-07T03:59:02;3.00;99.90
1277;DHT22;631;51.024;13.826;2022-12-07T04:01:28;3.00;99.90
1277;DHT22;631;51.024;13.826;2022-12-07T04:03:53;3.00;99.90
1277;DHT22;631;51.024;13.826;2022-12-07T04:06:19;3.10;99.90
1277;DHT22;631;51.024;13.826;2022-12-07T04:08:44;3.00;99.90
1277;DHT22;631;51.024;13.826;2022-12-07T04:11:10;2.90;99.90
1277;DHT22;631;51.024;13.826;2022-12-07T04:13:36;2.90;99.90
1277;DHT22;631;51.024;13.826;2022-12-07T04:16:21;2.90;99.90
1277;DHT22;631;51.024;13.826;2022-12-07T04:18:47;3.00;99.90
1277;DHT22;631;51.024;13.826;2022-12-07T04:21:13;3.00;99.90
1277;DHT22;631;51.024;13.826;2022-12-07T04:23:38;3.00;99.90
1277;DHT22;631;51.024;13.826;2022-12-07T04:26:04;3.00;99.90
1277;DHT22;631;51.024;13.826;2022-12-07T04:28:29;3.10;99.90
1277;DHT22;631;51.024;13.826;2022-12-07T04:30:55;3.10;99.90
1277;DHT22;631;51.024;13.826;2022-12-07T04:33:21;3.20;99.90
1277;DHT22;631;51.024;13.826;2022-12-07T04:35:46;3.20;99.90
1277;DHT22;631;51.024;13.826;2022-12-07T04:38:12;3.20;99.90
1277;DHT22;631;51.024;13.826;2022-12-07T04:40:37;3.20;99.90
1277;DHT22;631;51.024;13.826;2022-12-07T04:43:03;3.20;99.90
1277;DHT22;631;51.024;13.826;2022-12-07T04:45:30;3.10;99.90
1277;DHT22;631;51.024;13.826;2022-12-07T04:47:55;3.10;99.90
1277;DHT22;631;51.024;13.826;2022-12-07T04:50:21;3.00;99.90
1277;DHT22;631;51.024;13.826;2022-12-07T04:52:46;3.00;99.90
1277;DHT22;631;51.024;13.826;2022-12-07T04:55:12;2.90;99.90
1277;DHT22;631;51.024;13.826;2022-12-07T04:57:38;2.80;99.90
1277;DHT22;631;51.024;13.826;2022-12-07T05:00:04;2.70;99.90
1277;DHT22;631;51.024;13.826;2022-12-07T05:02:30;2.60;99.90
1277;DHT22;631;51.024;13.826;2022-12-07T05:04:55;2.50;99.90
1277;DHT22;631;51.024;13.826;2022-12-07T05:07:21;2.40;99.90
1277;DHT22;631;51.024;13.826;2022-12-07T05:09:46;2.40;99.90
1277;DHT22;631;51.024;13.826;2022-12-07T05:12:12;2.30;99.90
1277;DHT22;631;51.024;13.826;2022-12-07T05:14:38;2.20;99.90
1277;DHT22;631;51.024;13.826;2022-12-07T05:17:03;2.20;99.90
1277;DHT22;631;51.024;13.826;2022-12-07T05:19:29;2.20;99.90
1277;DHT22;631;51.024;13.826;2022-12-07T05:21:55;2.10;99.90
1277;DHT22;631;51.024;13.826;2022-12-07T05:24:20;2.10;99.90
1277;DHT22;631;51.024;13.826;2022-12-07T05:26:46;2.10;99.90
1277;DHT22;631;51.024;13.826;2022-12-07T05:29:14;2.20;99.90
1277;DHT22;631;51.024;13.826;2022-12-07T05:31:40;2.20;99.90
1277;DHT22;631;51.024;13.826;2022-12-07T05:34:05;2.20;99.90
1277;DHT22;631;51.024;13.826;2022-12-07T05:36:31;2.20;99.90
1277;DHT22;631;51.024;13.826;2022-12-07T05:38:57;2.20;99.90
1277;DHT22;631;51.024;13.826;2022-12-07T05:41:23;2.20;99.90
1277;DHT22;631;51.024;13.826;2022-12-07T05:44:07;2.20;99.90
1277;DHT22;631;51.024;13.826;2022-12-07T05:46:33;2.30;99.90
1277;DHT22;631;51.024;13.826;2022-12-07T05:48:59;2.30;99.90
1277;DHT22;631;51.024;13.826;2022-12-07T05:51:25;2.30;99.90
1277;DHT22;631;51.024;13.826;2022-12-07T05:53:51;2.40;99.90
1277;DHT22;631;51.024;13.826;2022-12-07T05:56:16;2.50;99.90
1277;DHT22;631;51.024;13.826;2022-12-07T05:58:42;2.50;99.90
1277;DHT22;631;51.024;13.826;2022-12-07T06:01:26;2.60;99.90
1277;DHT22;631;51.024;13.826;2022-12-07T06:03:52;2.60;99.90
1277;DHT22;631;51.024;13.826;2022-12-07T06:06:17;2.70;99.90
1277;DHT22;631;51.024;13.826;2022-12-07T06:08:43;2.70;99.90
1277;DHT22;631;51.024;13.826;2022-12-07T06:11:08;2.70;99.90
1277;DHT22;631;51.024;13.826;2022-12-07T06:13:52;2.80;99.90
1277;DHT22;631;51.024;13.826;2022-12-07T06:16:18;2.80;99.90
1277;DHT22;631;51.024;13.826;2022-12-07T06:18:44;2.90;99.90
1277;DHT22;631;51.024;13.826;2022-12-07T06:21:09;3.00;99.90
1277;DHT22;631;51.024;13.826;2022-12-07T06:23:35;3.00;99.90
1277;DHT22;631;51.024;13.826;2022-12-07T06:26:00;3.00;99.90
1277;DHT22;631;51.024;13.826;2022-12-07T06:28:26;3.10;99.90
1277;DHT22;631;51.024;13.826;2022-12-07T06:30:59;3.10;99.90
1277;DHT22;631;51.024;13.826;2022-12-07T06:33:26;3.10;99.90
1277;DHT22;631;51.024;13.826;2022-12-07T06:35:51;3.20;99.90
1277;DHT22;631;51.024;13.826;2022-12-07T06:38:17;3.30;99.90
1277;DHT22;631;51.024;13.826;2022-12-07T06:40:43;3.40;99.90
1277;DHT22;631;51.024;13.826;2022-12-07T06:43:08;3.30;99.90
1277;DHT22;631;51.024;13.826;2022-12-07T06:45:34;3.50;99.90
1277;DHT22;631;51.024;13.826;2022-12-07T06:48:00;3.50;99.90
1277;DHT22;631;51.024;13.826;2022-12-07T06:50:26;3.50;99.90
1277;DHT22;631;51.024;13.826;2022-12-07T06:52:52;3.60;99.90
1277;DHT22;631;51.024;13.826;2022-12-07T06:55:18;3.70;99.90
1277;DHT22;631;51.024;13.826;2022-12-07T06:57:43;3.70;99.90
1277;DHT22;631;51.024;13.826;2022-12-07T07:00:10;3.70;99.90
1277;DHT22;631;51.024;13.826;2022-12-07T07:02:35;3.70;99.90
1277;DHT22;631;51.024;13.826;2022-12-07T07:05:01;3.70;99.90
1277;DHT22;631;51.024;13.826;2022-12-07T07:07:27;3.70;99.90
1277;DHT22;631;51.024;13.826;2022-12-07T07:09:52;3.70;99.90
1277;DHT22;631;51.024;13.826;2022-12-07T07:12:18;3.70;99.90
1277;DHT22;631;51.024;13.826;2022-12-07T07:14:43;3.80;99.90
1277;DHT22;631;51.024;13.826;2022-12-07T07:17:09;3.80;99.90
1277;DHT22;631;51.024;13.826;2022-12-07T07:19:35;3.60;99.90
1277;DHT22;631;51.024;13.826;2022-12-07T07:22:01;3.60;99.90
1277;DHT22;631;51.024;13.826;2022-12-07T07:24:27;3.50;99.90
1277;DHT22;631;51.024;13.826;2022-12-07T07:26:53;3.50;99.90
1277;DHT22;631;51.024;13.826;2022-12-07T07:29:18;3.60;99.90
1277;DHT22;631;51.024;13.826;2022-12-07T07:31:44;3.50;99.90
1277;DHT22;631;51.024;13.826;2022-12-07T07:34:10;3.40;99.90
1277;DHT22;631;51.024;13.826;2022-12-07T07:36:35;3.40;99.90
1277;DHT22;631;51.024;13.826;2022-12-07T07:39:01;3.30;99.90
1277;DHT22;631;51.024;13.826;2022-12-07T07:41:26;3.30;99.90
1277;DHT22;631;51.024;13.826;2022-12-07T07:43:52;3.20;99.90
1277;DHT22;631;51.024;13.826;2022-12-07T07:46:18;3.30;99.90
1277;DHT22;631;51.024;13.826;2022-12-07T07:48:43;3.30;99.90
1277;DHT22;631;51.024;13.826;2022-12-07T07:51:09;3.30;99.90
1277;DHT22;631;51.024;13.826;2022-12-07T07:53:34;3.30;99.90
1277;DHT22;631;51.024;13.826;2022-12-07T07:56:00;3.30;99.90
1277;DHT22;631;51.024;13.826;2022-12-07T07:58:26;3.30;99.90
1277;DHT22;631;51.024;13.826;2022-12-07T08:00:52;3.40;99.90
1277;DHT22;631;51.024;13.826;2022-12-07T08:03:18;3.40;99.90
1277;DHT22;631;51.024;13.826;2022-12-07T08:05:44;3.40;99.90
1277;DHT22;631;51.024;13.826;2022-12-07T08:08:10;3.50;99.90
1277;DHT22;631;51.024;13.826;2022-12-07T08:10:35;3.50;99.90
1277;DHT22;631;51.024;13.826;2022-12-07T08:13:02;3.50;99.90
1277;DHT22;631;51.024;13.826;2022-12-07T08:15:40;3.60;99.90
1277;DHT22;631;51.024;13.826;2022-12-07T08:18:06;3.70;99.90
1277;DHT22;631;51.024;13.826;2022-12-07T08:20:33;3.70;99.90
1277;DHT22;631;51.024;13.826;2022-12-07T08:22:59;3.60;99.90
1277;DHT22;631;51.024;13.826;2022-12-07T08:25:25;3.70;99.90
1277;DHT22;631;51.024;13.826;2022-12-07T08:27:51;3.80;99.90
1277;DHT22;631;51.024;13.826;2022-12-07T08:30:17;3.80;99.90
1277;DHT22;631;51.024;13.826;2022-12-07T08:32:44;3.90;99.90
1277;DHT22;631;51.024;13.826;2022-12-07T08:35:10;4.00;99.90
1277;DHT22;631;51.024;13.826;2022-12-07T08:37:36;4.00;99.90
1277;DHT22;631;51.024;13.826;2022-12-07T08:40:03;4.00;99.90
1277;DHT22;631;51.024;13.826;2022-12-07T08:42:29;4.00;99.90
1277;DHT22;631;51.024;13.826;2022-12-07T08:45:05;4.00;99.90
1277;DHT22;631;51.024;13.826;2022-12-07T08:47:30;4.10;99.90
1277;DHT22;631;51.024;13.826;2022-12-07T08:49:57;4.20;99.90
1277;DHT22;631;51.024;13.826;2022-12-07T08:52:31;4.20;99.90
1277;DHT22;631;51.024;13.826;2022-12-07T08:54:58;4.30;99.90
1277;DHT22;631;51.024;13.826;2022-12-07T08:57:25;4.30;99.90
1277;DHT22;631;51.024;13.826;2022-12-07T08:59:52;4.40;99.90
1277;DHT22;631;51.024;13.826;2022-12-07T09:02:17;4.60;99.90
1277;DHT22;631;51.024;13.826;2022-12-07T09:04:43;4.70;99.90
1277;DHT22;631;51.024;13.826;2022-12-07T09:07:08;4.70;99.90
1277;DHT22;631;51.024;13.826;2022-12-07T09:09:34;4.80;99.90
1277;DHT22;631;51.024;13.826;2022-12-07T09:12:00;4.90;99.90
1277;DHT22;631;51.024;13.826;2022-12-07T09:14:25;4.90;99.90
1277;DHT22;631;51.024;13.826;2022-12-07T09:16:51;4.90;99.90
1277;DHT22;631;51.024;13.826;2022-12-07T09:19:17;5.00;99.90
1277;DHT22;631;51.024;13.826;2022-12-07T09:21:42;5.00;99.90
1277;DHT22;631;51.024;13.826;2022-12-07T09:24:08;5.00;99.90
1277;DHT22;631;51.024;13.826;2022-12-07T09:26:34;5.10;99.90
1277;DHT22;631;51.024;13.826;2022-12-07T09:29:02;5.00;99.90
1277;DHT22;631;51.024;13.826;2022-12-07T09:31:27;5.10;99.90
1277;DHT22;631;51.024;13.826;2022-12-07T09:33:58;5.20;99.90
1277;DHT22;631;51.024;13.826;2022-12-07T09:36:24;5.30;99.90
1277;DHT22;631;51.024;13.826;2022-12-07T09:38:50;5.50;99.90
1277;DHT22;631;51.024;13.826;2022-12-07T09:41:16;5.90;99.90
1277;DHT22;631;51.024;13.826;2022-12-07T09:43:42;5.80;99.90
1277;DHT22;631;51.024;13.826;2022-12-07T09:46:13;5.80;99.90
1277;DHT22;631;51.024;13.826;2022-12-07T09:48:41;5.80;99.90
1277;DHT22;631;51.024;13.826;2022-12-07T09:53:44;5.90;99.90
1277;DHT22;631;51.024;13.826;2022-12-07T09:56:14;5.80;99.90
1277;DHT22;631;51.024;13.826;2022-12-07T09:58:40;5.90;99.90
1277;DHT22;631;51.024;13.826;2022-12-07T10:01:13;6.00;99.90
1277;DHT22;631;51.024;13.826;2022-12-07T10:03:42;6.70;99.90
1277;DHT22;631;51.024;13.826;2022-12-07T10:06:11;7.10;99.90
1277;DHT22;631;51.024;13.826;2022-12-07T10:08:37;7.40;99.90
1277;DHT22;631;51.024;13.826;2022-12-07T10:11:03;7.70;99.90
1277;DHT22;631;51.024;13.826;2022-12-07T10:13:44;7.90;99.90
1277;DHT22;631;51.024;13.826;2022-12-07T10:18:49;7.90;99.90
1277;DHT22;631;51.024;13.826;2022-12-07T10:21:18;8.00;99.90
1277;DHT22;631;51.024;13.826;2022-12-07T10:24:08;8.60;99.90
1277;DHT22;631;51.024;13.826;2022-12-07T10:29:19;10.30;98.60
1277;DHT22;631;51.024;13.826;2022-12-07T10:31:48;10.70;98.00
1277;DHT22;631;51.024;13.826;2022-12-07T10:34:22;10.80;95.70
1277;DHT22;631;51.024;13.826;2022-12-07T10:36:52;10.50;96.30
1277;DHT22;631;51.024;13.826;2022-12-07T10:39:22;9.90;96.60
1277;DHT22;631;51.024;13.826;2022-12-07T10:41:59;9.40;98.30
1277;DHT22;631;51.024;13.826;2022-12-07T10:44:28;8.60;99.90
1277;DHT22;631;51.024;13.826;2022-12-07T11:06:34;6.20;99.90
1277;DHT22;631;51.024;13.826;2022-12-07T11:14:31;6.00;99.90
1277;DHT22;631;51.024;13.826;2022-12-07T11:17:32;5.90;99.90
1277;DHT22;631;51.024;13.826;2022-12-07T11:26:04;6.00;99.90
1277;DHT22;631;51.024;13.826;2022-12-07T11:34:23;6.10;99.90
1277;DHT22;631;51.024;13.826;2022-12-07T11:36:52;6.20;99.90
1277;DHT22;631;51.024;13.826;2022-12-07T11:39:25;6.20;99.90
1277;DHT22;631;51.024;13.826;2022-12-07T11:42:04;6.10;99.90
1277;DHT22;631;51.024;13.826;2022-12-07T11:47:43;5.90;99.90
1277;DHT22;631;51.024;13.826;2022-12-07T12:03:44;4.80;99.90
1277;DHT22;631;51.024;13.826;2022-12-07T12:06:11;4.80;99.90
1277;DHT22;631;51.024;13.826;2022-12-07T12:08:42;4.90;99.90
1277;DHT22;631;51.024;13.826;2022-12-07T12:19:36;5.00;99.90
1277;DHT22;631;51.024;13.826;2022-12-07T12:22:16;5.10;99.90
1277;DHT22;631;51.024;13.826;2022-12-07T12:24:43;5.30;99.90
1277;DHT22;631;51.024;13.826;2022-12-07T12:27:32;5.40;99.90
1277;DHT22;631;51.024;13.826;2022-12-07T12:30:00;5.50;99.90
1277;DHT22;631;51.024;13.826;2022-12-07T12:32:38;5.60;99.90
1277;DHT22;631;51.024;13.826;2022-12-07T12:35:44;5.60;99.90
1277;DHT22;631;51.024;13.826;2022-12-07T12:38:30;5.50;99.90
1277;DHT22;631;51.024;13.826;2022-12-07T12:40:57;5.50;99.90
1277;DHT22;631;51.024;13.826;2022-12-07T12:51:51;5.20;99.90
1277;DHT22;631;51.024;13.826;2022-12-07T13:01:50;4.70;99.90
1277;DHT22;631;51.024;13.826;2022-12-07T13:04:27;4.60;99.90
1277;DHT22;631;51.024;13.826;2022-12-07T13:06:53;4.60;99.90
1277;DHT22;631;51.024;13.826;2022-12-07T13:09:24;4.50;99.90
1277;DHT22;631;51.024;13.826;2022-12-07T13:12:00;4.40;99.90
1277;DHT22;631;51.024;13.826;2022-12-07T13:14:56;4.30;99.90
1277;DHT22;631;51.024;13.826;2022-12-07T13:27:29;4.00;99.90
1277;DHT22;631;51.024;13.826;2022-12-07T13:29:57;4.00;99.90
1277;DHT22;631;51.024;13.826;2022-12-07T13:32:25;4.10;99.90
1277;DHT22;631;51.024;13.826;2022-12-07T13:34:51;4.00;99.90
1277;DHT22;631;51.024;13.826;2022-12-07T13:37:29;4.00;99.90
1277;DHT22;631;51.024;13.826;2022-12-07T13:40:18;4.00;99.90
1277;DHT22;631;51.024;13.826;2022-12-07T13:42:44;4.00;99.90
1277;DHT22;631;51.024;13.826;2022-12-07T13:45:31;3.90;99.90
1277;DHT22;631;51.024;13.826;2022-12-07T13:48:31;3.90;99.90
1277;DHT22;631;51.024;13.826;2022-12-07T13:51:01;3.80;99.90
1277;DHT22;631;51.024;13.826;2022-12-07T13:53:28;3.80;99.90
1277;DHT22;631;51.024;13.826;2022-12-07T13:55:59;3.80;99.90
1277;DHT22;631;51.024;13.826;2022-12-07T13:58:27;3.90;99.90
1277;DHT22;631;51.024;13.826;2022-12-07T14:00:55;3.80;99.90
1277;DHT22;631;51.024;13.826;2022-12-07T14:03:29;3.70;99.90
1277;DHT22;631;51.024;13.826;2022-12-07T14:08:40;3.80;99.90
1277;DHT22;631;51.024;13.826;2022-12-07T14:11:07;3.80;99.90
1277;DHT22;631;51.024;13.826;2022-12-07T14:13:37;3.80;99.90
1277;DHT22;631;51.024;13.826;2022-12-07T14:16:30;3.90;99.90
1277;DHT22;631;51.024;13.826;2022-12-07T14:18:58;4.00;99.90
1277;DHT22;631;51.024;13.826;2022-12-07T14:21:27;4.00;99.90
1277;DHT22;631;51.024;13.826;2022-12-07T14:26:34;4.00;99.90
1277;DHT22;631;51.024;13.826;2022-12-07T14:29:39;4.00;99.90
1277;DHT22;631;51.024;13.826;2022-12-07T14:32:27;4.10;99.90
1277;DHT22;631;51.024;13.826;2022-12-07T14:35:12;4.10;99.90
1277;DHT22;631;51.024;13.826;2022-12-07T14:37:39;4.20;99.90
1277;DHT22;631;51.024;13.826;2022-12-07T14:40:06;4.20;99.90
1277;DHT22;631;51.024;13.826;2022-12-07T14:42:33;4.20;99.90
1277;DHT22;631;51.024;13.826;2022-12-07T14:44:59;4.10;99.90
1277;DHT22;631;51.024;13.826;2022-12-07T14:47:26;4.20;99.90
1277;DHT22;631;51.024;13.826;2022-12-07T14:49:52;4.20;99.90
1277;DHT22;631;51.024;13.826;2022-12-07T14:52:21;4.10;99.90
1277;DHT22;631;51.024;13.826;2022-12-07T14:54:48;4.20;99.90
1277;DHT22;631;51.024;13.826;2022-12-07T14:57:14;4.20;99.90
1277;DHT22;631;51.024;13.826;2022-12-07T14:59:39;4.20;99.90
1277;DHT22;631;51.024;13.826;2022-12-07T15:02:06;4.20;99.90
1277;DHT22;631;51.024;13.826;2022-12-07T15:04:32;4.10;99.90
1277;DHT22;631;51.024;13.826;2022-12-07T15:06:59;4.10;99.90
1277;DHT22;631;51.024;13.826;2022-12-07T15:09:26;4.00;99.90
1277;DHT22;631;51.024;13.826;2022-12-07T15:11:51;4.00;99.90
1277;DHT22;631;51.024;13.826;2022-12-07T15:14:17;4.00;99.90
1277;DHT22;631;51.024;13.826;2022-12-07T15:16:43;4.00;99.90
1277;DHT22;631;51.024;13.826;2022-12-07T15:19:12;4.00;99.90
1277;DHT22;631;51.024;13.826;2022-12-07T15:21:39;4.00;99.90
1277;DHT22;631;51.024;13.826;2022-12-07T15:24:05;4.10;99.90
1277;DHT22;631;51.024;13.826;2022-12-07T15:26:31;4.10;99.90
1277;DHT22;631;51.024;13.826;2022-12-07T15:28:57;4.10;99.90
1277;DHT22;631;51.024;13.826;2022-12-07T15:31:22;4.20;99.90
1277;DHT22;631;51.024;13.826;2022-12-07T15:33:48;4.20;99.90
1277;DHT22;631;51.024;13.826;2022-12-07T15:36:33;4.30;99.90
1277;DHT22;631;51.024;13.826;2022-12-07T15:38:59;4.30;99.90
1277;DHT22;631;51.024;13.826;2022-12-07T15:41:25;4.40;99.90
1277;DHT22;631;51.024;13.826;2022-12-07T15:43:51;4.30;99.90
1277;DHT22;631;51.024;13.826;2022-12-07T15:46:37;4.40;99.90
1277;DHT22;631;51.024;13.826;2022-12-07T15:49:06;4.40;99.90
1277;DHT22;631;51.024;13.826;2022-12-07T15:51:33;4.50;99.90
1277;DHT22;631;51.024;13.826;2022-12-07T15:53:58;4.50;99.90
1277;DHT22;631;51.024;13.826;2022-12-07T15:56:24;4.50;99.90
1277;DHT22;631;51.024;13.826;2022-12-07T15:58:50;4.50;99.90
1277;DHT22;631;51.024;13.826;2022-12-07T16:01:18;4.50;99.90
1277;DHT22;631;51.024;13.826;2022-12-07T16:03:45;4.50;99.90
1277;DHT22;631;51.024;13.826;2022-12-07T16:06:11;4.40;99.90
1277;DHT22;631;51.024;13.826;2022-12-07T16:08:42;4.40;99.90
1277;DHT22;631;51.024;13.826;2022-12-07T16:11:08;4.40;99.90
1277;DHT22;631;51.024;13.826;2022-12-07T16:13:34;4.40;99.90
1277;DHT22;631;51.024;13.826;2022-12-07T16:16:10;4.40;99.90
1277;DHT22;631;51.024;13.826;2022-12-07T16:18:36;4.40;99.90
1277;DHT22;631;51.024;13.826;2022-12-07T16:21:02;4.40;99.90
1277;DHT22;631;51.024;13.826;2022-12-07T16:23:28;4.40;99.90
1277;DHT22;631;51.024;13.826;2022-12-07T16:25:54;4.50;99.90
1277;DHT22;631;51.024;13.826;2022-12-07T16:28:20;4.50;99.90
1277;DHT22;631;51.024;13.826;2022-12-07T16:30:45;4.40;99.90
1277;DHT22;631;51.024;13.826;2022-12-07T16:33:11;4.40;99.90
1277;DHT22;631;51.024;13.826;2022-12-07T16:35:40;4.30;99.90
1277;DHT22;631;51.024;13.826;2022-12-07T16:38:09;4.30;99.90
1277;DHT22;631;51.024;13.826;2022-12-07T16:40:34;4.30;99.90
1277;DHT22;631;51.024;13.826;2022-12-07T16:43:00;4.30;99.90
1277;DHT22;631;51.024;13.826;2022-12-07T16:45:25;4.30;99.90
1277;DHT22;631;51.024;13.826;2022-12-07T16:47:51;4.20;99.90
1277;DHT22;631;51.024;13.826;2022-12-07T16:50:17;4.30;99.90
1277;DHT22;631;51.024;13.826;2022-12-07T16:52:42;4.30;99.90
1277;DHT22;631;51.024;13.826;2022-12-07T16:55:08;4.30;99.90
1277;DHT22;631;51.024;13.826;2022-12-07T16:57:34;4.30;99.90
1277;DHT22;631;51.024;13.826;2022-12-07T16:59:59;4.30;99.90
1277;DHT22;631;51.024;13.826;2022-12-07T17:02:25;4.30;99.90
1277;DHT22;631;51.024;13.826;2022-12-07T17:04:51;4.30;99.90
1277;DHT22;631;51.024;13.826;2022-12-07T17:07:17;4.30;99.90
1277;DHT22;631;51.024;13.826;2022-12-07T17:09:42;4.40;99.90
1277;DHT22;631;51.024;13.826;2022-12-07T17:12:08;4.40;99.90
1277;DHT22;631;51.024;13.826;2022-12-07T17:14:34;4.40;99.90
1277;DHT22;631;51.024;13.826;2022-12-07T17:17:18;4.50;99.90
1277;DHT22;631;51.024;13.826;2022-12-07T17:19:44;4.50;99.90
1277;DHT22;631;51.024;13.826;2022-12-07T17:22:10;4.50;99.90
1277;DHT22;631;51.024;13.826;2022-12-07T17:24:38;4.60;99.90
1277;DHT22;631;51.024;13.826;2022-12-07T17:27:03;4.50;99.90
1277;DHT22;631;51.024;13.826;2022-12-07T17:29:29;4.60;99.90
1277;DHT22;631;51.024;13.826;2022-12-07T17:31:54;4.60;99.90
1277;DHT22;631;51.024;13.826;2022-12-07T17:34:20;4.70;99.90
1277;DHT22;631;51.024;13.826;2022-12-07T17:36:46;4.70;99.90
1277;DHT22;631;51.024;13.826;2022-12-07T17:39:15;4.70;99.90
1277;DHT22;631;51.024;13.826;2022-12-07T17:41:41;4.60;99.90
1277;DHT22;631;51.024;13.826;2022-12-07T17:44:27;4.60;99.90
1277;DHT22;631;51.024;13.826;2022-12-07T17:46:53;4.60;99.90
1277;DHT22;631;51.024;13.826;2022-12-07T17:49:27;4.50;99.90
1277;DHT22;631;51.024;13.826;2022-12-07T17:51:53;4.40;99.90
1277;DHT22;631;51.024;13.826;2022-12-07T17:54:37;4.40;99.90
1277;DHT22;631;51.024;13.826;2022-12-07T17:57:03;4.40;99.90
1277;DHT22;631;51.024;13.826;2022-12-07T17:59:29;4.40;99.90
1277;DHT22;631;51.024;13.826;2022-12-07T18:01:54;4.30;99.90
1277;DHT22;631;51.024;13.826;2022-12-07T18:04:20;4.30;99.90
1277;DHT22;631;51.024;13.826;2022-12-07T18:06:46;4.40;99.90
1277;DHT22;631;51.024;13.826;2022-12-07T18:09:11;4.40;99.90
1277;DHT22;631;51.024;13.826;2022-12-07T18:11:37;4.40;99.90
1277;DHT22;631;51.024;13.826;2022-12-07T18:14:03;4.40;99.90
1277;DHT22;631;51.024;13.826;2022-12-07T18:16:30;4.40;99.90
1277;DHT22;631;51.024;13.826;2022-12-07T18:19:02;4.40;99.90
1277;DHT22;631;51.024;13.826;2022-12-07T18:21:30;4.40;99.90
1277;DHT22;631;51.024;13.826;2022-12-07T18:23:57;4.50;99.90
1277;DHT22;631;51.024;13.826;2022-12-07T18:26:26;4.40;99.90
1277;DHT22;631;51.024;13.826;2022-12-07T18:28:52;4.60;99.90
1277;DHT22;631;51.024;13.826;2022-12-07T18:31:18;4.50;99.90
1277;DHT22;631;51.024;13.826;2022-12-07T18:33:45;4.50;99.90